Main page
METAR-TAF:

METAR-TAF

Airports :

Gloucester, England

Gloucestershire Airport

latitude: 51-54N, longitude: 002-10W, elevation: 29 m

Current weather observation

The report was made 35 minutes ago, at 16:50 UTC
Wind 2 kt from the South
Temperature 22°C
Humidity 43%
Pressure 1012 hPa
Visibility 10 km or more
no clouds below 1500 m and no cumulonimbus

METAR: EGBJ 261650Z 19002KT CAVOK 22/09 Q1012

Time: 18:25 (17:25 UTC)

Forecast

The report was made 3 hours and 25 minutes ago, at 14:00 UTC
Forecast valid from 26 at 15 UTC to 26 at 19 UTC
Wind 3 kt from variable directions
Visibility 10 km or more
Few clouds at a height of 4500 ft
Becoming
from 26 at 16 UTC to 26 at 19 UTC
Wind 10 kt from the East/Southeast

TAF: EGBJ 261400Z 2615/2619 VRB03KT 9999 FEW045 BECMG 2616/2619 11010KT

Weather observations and forecasts of more than 4000 airports (METAR and TAF reports).

The available stations are represented by yellow and red dots on the map.

Hover mouse over dot to see the name of the station.

Then click to see weather observations and forecasts.

To change the map : click on the green buttons with a black cross to zoom in, on the green button with a dash to zoom out, or on the green arrows for adjacent maps.


METAR-TAF: